sensor_id;sensor_type;location;lat;lon;timestamp;pressure;altitude;pressure_sealevel;temperature;humidity
59190;BME280;50749;51.636;4.948;2023-07-13T00:01:30;101447.78;;;22.98;46.50
59190;BME280;50749;51.636;4.948;2023-07-13T00:03:57;101456.53;;;22.97;46.88
59190;BME280;50749;51.636;4.948;2023-07-13T00:06:23;101457.69;;;22.96;46.90
59190;BME280;50749;51.636;4.948;2023-07-13T00:08:49;101460.06;;;22.94;47.02
59190;BME280;50749;51.636;4.948;2023-07-13T00:11:16;101462.06;;;22.93;46.74
59190;BME280;50749;51.636;4.948;2023-07-13T00:13:43;101472.38;;;22.93;47.02
59190;BME280;50749;51.636;4.948;2023-07-13T00:16:10;101460.84;;;22.94;46.74
59190;BME280;50749;51.636;4.948;2023-07-13T00:18:37;101456.50;;;22.93;46.84
59190;BME280;50749;51.636;4.948;2023-07-13T00:21:03;101460.84;;;22.94;47.02
59190;BME280;50749;51.636;4.948;2023-07-13T00:23:36;101452.06;;;22.92;47.09
59190;BME280;50749;51.636;4.948;2023-07-13T00:26:04;101454.50;;;22.94;46.97
59190;BME280;50749;51.636;4.948;2023-07-13T00:28:30;101458.44;;;22.93;46.75
59190;BME280;50749;51.636;4.948;2023-07-13T00:30:56;101456.03;;;22.91;47.18
59190;BME280;50749;51.636;4.948;2023-07-13T00:33:22;101458.03;;;22.91;47.12
59190;BME280;50749;51.636;4.948;2023-07-13T00:35:48;101460.03;;;22.90;46.96
59190;BME280;50749;51.636;4.948;2023-07-13T00:38:15;101462.81;;;22.90;47.20
59190;BME280;50749;51.636;4.948;2023-07-13T00:40:41;101452.81;;;22.89;47.04
59190;BME280;50749;51.636;4.948;2023-07-13T00:43:16;101457.22;;;22.90;47.26
59190;BME280;50749;51.636;4.948;2023-07-13T00:48:10;101457.19;;;22.87;47.41
59190;BME280;50749;51.636;4.948;2023-07-13T00:50:37;101463.56;;;22.87;46.97
59190;BME280;50749;51.636;4.948;2023-07-13T00:53:04;101456.38;;;22.86;47.13
59190;BME280;50749;51.636;4.948;2023-07-13T00:55:29;101470.31;;;22.86;47.04
59190;BME280;50749;51.636;4.948;2023-07-13T00:57:56;101459.16;;;22.86;47.02
59190;BME280;50749;51.636;4.948;2023-07-13T01:00:23;101456.38;;;22.86;47.33
59190;BME280;50749;51.636;4.948;2023-07-13T01:02:52;101470.31;;;22.86;47.66
59190;BME280;50749;51.636;4.948;2023-07-13T01:05:20;101476.72;;;22.87;47.53
59190;BME280;50749;51.636;4.948;2023-07-13T01:07:48;101477.06;;;22.85;47.64
59190;BME280;50749;51.636;4.948;2023-07-13T01:10:21;101474.28;;;22.85;47.75
59190;BME280;50749;51.636;4.948;2023-07-13T01:12:48;101478.66;;;22.86;47.54
59190;BME280;50749;51.636;4.948;2023-07-13T01:15:43;101481.47;;;22.86;47.67
59190;BME280;50749;51.636;4.948;2023-07-13T01:18:12;101473.91;;;22.87;47.22
59190;BME280;50749;51.636;4.948;2023-07-13T01:20:39;101482.28;;;22.87;47.45
59190;BME280;50749;51.636;4.948;2023-07-13T01:23:07;101482.28;;;22.87;47.45
59190;BME280;50749;51.636;4.948;2023-07-13T01:25:34;101478.66;;;22.86;47.30
59190;BME280;50749;51.636;4.948;2023-07-13T01:28:06;101482.66;;;22.85;47.42
59190;BME280;50749;51.636;4.948;2023-07-13T01:30:32;101485.81;;;22.84;47.68
59190;BME280;50749;51.636;4.948;2023-07-13T01:32:58;101482.22;;;22.83;47.79
59190;BME280;50749;51.636;4.948;2023-07-13T01:35:24;101491.38;;;22.84;47.96
59190;BME280;50749;51.636;4.948;2023-07-13T01:37:53;101489.78;;;22.82;47.96
59190;BME280;50749;51.636;4.948;2023-07-13T01:40:19;101492.19;;;22.84;47.97
59190;BME280;50749;51.636;4.948;2023-07-13T01:42:45;101495.78;;;22.85;47.92
59190;BME280;50749;51.636;4.948;2023-07-13T01:45:11;101489.41;;;22.84;47.46
59190;BME280;50749;51.636;4.948;2023-07-13T01:47:37;101486.63;;;22.84;47.56
59190;BME280;50749;51.636;4.948;2023-07-13T01:50:03;101491.38;;;22.84;47.97
59190;BME280;50749;51.636;4.948;2023-07-13T01:52:29;101493.38;;;22.83;48.12
59190;BME280;50749;51.636;4.948;2023-07-13T01:54:55;101492.56;;;22.82;48.06
59190;BME280;50749;51.636;4.948;2023-07-13T01:57:21;101495.72;;;22.81;47.76
59190;BME280;50749;51.636;4.948;2023-07-13T01:59:46;101495.72;;;22.81;47.96
59190;BME280;50749;51.636;4.948;2023-07-13T02:02:12;101498.09;;;22.79;47.61
59190;BME280;50749;51.636;4.948;2023-07-13T02:04:38;101495.72;;;22.81;47.83
59190;BME280;50749;51.636;4.948;2023-07-13T02:07:04;101494.94;;;22.80;47.97
59190;BME280;50749;51.636;4.948;2023-07-13T02:09:30;101496.91;;;22.80;48.02
59190;BME280;50749;51.636;4.948;2023-07-13T02:11:57;101506.06;;;22.80;48.17
59190;BME280;50749;51.636;4.948;2023-07-13T02:14:22;101498.09;;;22.79;47.78
59190;BME280;50749;51.636;4.948;2023-07-13T02:16:48;101509.25;;;22.79;47.81
59190;BME280;50749;51.636;4.948;2023-07-13T02:19:14;101514.00;;;22.78;47.88
59190;BME280;50749;51.636;4.948;2023-07-13T02:21:40;101509.25;;;22.79;47.92
59190;BME280;50749;51.636;4.948;2023-07-13T02:24:06;101506.44;;;22.79;48.39
59190;BME280;50749;51.636;4.948;2023-07-13T02:26:32;101502.06;;;22.78;48.01
59190;BME280;50749;51.636;4.948;2023-07-13T02:28:57;101498.47;;;22.77;48.00
59190;BME280;50749;51.636;4.948;2023-07-13T02:31:23;101497.66;;;22.77;48.21
59190;BME280;50749;51.636;4.948;2023-07-13T02:33:49;101495.66;;;22.77;48.02
59190;BME280;50749;51.636;4.948;2023-07-13T02:36:15;101484.91;;;22.76;48.24
59190;BME280;50749;51.636;4.948;2023-07-13T02:38:42;101488.06;;;22.74;47.97
59190;BME280;50749;51.636;4.948;2023-07-13T02:41:08;101493.25;;;22.76;48.19
59190;BME280;50749;51.636;4.948;2023-07-13T02:43:35;101497.25;;;22.75;48.11
59190;BME280;50749;51.636;4.948;2023-07-13T02:46:02;101502.81;;;22.75;48.37
59190;BME280;50749;51.636;4.948;2023-07-13T02:48:37;101499.22;;;22.74;48.65
59190;BME280;50749;51.636;4.948;2023-07-13T02:51:03;101490.44;;;22.72;48.19
59190;BME280;50749;51.636;4.948;2023-07-13T02:53:30;101496.00;;;22.72;48.59
59190;BME280;50749;51.636;4.948;2023-07-13T02:55:56;101492.41;;;22.72;48.43
59190;BME280;50749;51.636;4.948;2023-07-13T02:58:22;101489.63;;;22.72;48.65
59190;BME280;50749;51.636;4.948;2023-07-13T03:00:48;101483.25;;;22.71;48.72
59190;BME280;50749;51.636;4.948;2023-07-13T03:03:15;101481.66;;;22.70;48.82
59190;BME280;50749;51.636;4.948;2023-07-13T03:05:43;101493.16;;;22.69;48.41
59190;BME280;50749;51.636;4.948;2023-07-13T03:08:10;101491.16;;;22.69;48.59
59190;BME280;50749;51.636;4.948;2023-07-13T03:10:37;101493.16;;;22.69;48.55
59190;BME280;50749;51.636;4.948;2023-07-13T03:13:03;101497.56;;;22.70;48.80
59190;BME280;50749;51.636;4.948;2023-07-13T03:15:29;101501.53;;;22.69;48.62
59190;BME280;50749;51.636;4.948;2023-07-13T03:17:55;101506.72;;;22.70;48.64
59190;BME280;50749;51.636;4.948;2023-07-13T03:20:21;101500.34;;;22.70;48.62
59190;BME280;50749;51.636;4.948;2023-07-13T03:22:46;101496.75;;;22.69;48.45
59190;BME280;50749;51.636;4.948;2023-07-13T03:25:13;101500.34;;;22.70;48.46
59190;BME280;50749;51.636;4.948;2023-07-13T03:27:39;101502.31;;;22.69;48.82
59190;BME280;50749;51.636;4.948;2023-07-13T03:30:05;101504.31;;;22.69;48.55
59190;BME280;50749;51.636;4.948;2023-07-13T03:32:31;101501.09;;;22.67;48.90
59190;BME280;50749;51.636;4.948;2023-07-13T03:34:57;101507.47;;;22.67;48.48
59190;BME280;50749;51.636;4.948;2023-07-13T03:37:23;101509.47;;;22.67;48.56
59190;BME280;50749;51.636;4.948;2023-07-13T03:39:49;101513.41;;;22.66;48.56
59190;BME280;50749;51.636;4.948;2023-07-13T03:42:15;101511.06;;;22.68;48.77
59190;BME280;50749;51.636;4.948;2023-07-13T03:44:42;101521.78;;;22.66;48.84
59190;BME280;50749;51.636;4.948;2023-07-13T03:47:11;101525.34;;;22.66;49.10
59190;BME280;50749;51.636;4.948;2023-07-13T03:49:38;101518.56;;;22.63;48.93
59190;BME280;50749;51.636;4.948;2023-07-13T03:52:04;101520.19;;;22.65;48.75
59190;BME280;50749;51.636;4.948;2023-07-13T03:54:30;101520.19;;;22.65;49.03
59190;BME280;50749;51.636;4.948;2023-07-13T03:56:56;101516.56;;;22.64;48.88
59190;BME280;50749;51.636;4.948;2023-07-13T03:59:22;101516.94;;;22.62;49.21
59190;BME280;50749;51.636;4.948;2023-07-13T04:01:47;101523.72;;;22.61;48.84
59190;BME280;50749;51.636;4.948;2023-07-13T04:04:13;101529.72;;;22.63;49.31
59190;BME280;50749;51.636;4.948;2023-07-13T04:06:40;101522.53;;;22.62;49.24
59190;BME280;50749;51.636;4.948;2023-07-13T04:09:06;101527.72;;;22.64;48.78
59190;BME280;50749;51.636;4.948;2023-07-13T04:11:33;101535.28;;;22.63;49.02
59190;BME280;50749;51.636;4.948;2023-07-13T04:13:59;101529.72;;;22.63;49.29
59190;BME280;50749;51.636;4.948;2023-07-13T04:16:25;101534.50;;;22.63;49.05
59190;BME280;50749;51.636;4.948;2023-07-13T04:18:51;101542.47;;;22.65;49.29
59190;BME280;50749;51.636;4.948;2023-07-13T04:21:22;101544.03;;;22.62;48.93
59190;BME280;50749;51.636;4.948;2023-07-13T04:23:48;101540.88;;;22.63;49.03
59190;BME280;50749;51.636;4.948;2023-07-13T04:26:14;101540.88;;;22.63;49.24
59190;BME280;50749;51.636;4.948;2023-07-13T04:28:40;101550.38;;;22.62;48.99
59190;BME280;50749;51.636;4.948;2023-07-13T04:31:05;101553.19;;;22.62;49.43
59190;BME280;50749;51.636;4.948;2023-07-13T04:33:32;101555.16;;;22.62;49.31
59190;BME280;50749;51.636;4.948;2023-07-13T04:35:58;101553.63;;;22.65;49.05
59190;BME280;50749;51.636;4.948;2023-07-13T04:38:27;101554.00;;;22.63;49.04
59190;BME280;50749;51.636;4.948;2023-07-13T04:40:58;101553.63;;;22.65;49.12
59190;BME280;50749;51.636;4.948;2023-07-13T04:43:25;101556.41;;;22.65;49.13
59190;BME280;50749;51.636;4.948;2023-07-13T04:45:52;101557.59;;;22.63;49.51
59190;BME280;50749;51.636;4.948;2023-07-13T04:48:18;101559.19;;;22.65;49.17
59190;BME280;50749;51.636;4.948;2023-07-13T04:50:45;101563.56;;;22.66;49.07
59190;BME280;50749;51.636;4.948;2023-07-13T04:53:11;101564.78;;;22.65;49.56
59190;BME280;50749;51.636;4.948;2023-07-13T04:55:37;101570.34;;;22.65;49.43
59190;BME280;50749;51.636;4.948;2023-07-13T04:58:05;101574.72;;;22.66;49.62
59190;BME280;50749;51.636;4.948;2023-07-13T05:00:31;101571.13;;;22.65;49.66
59190;BME280;50749;51.636;4.948;2023-07-13T05:02:57;101566.38;;;22.66;49.22
59190;BME280;50749;51.636;4.948;2023-07-13T05:05:25;101572.38;;;22.68;49.68
59190;BME280;50749;51.636;4.948;2023-07-13T05:07:52;101570.81;;;22.70;49.88
59190;BME280;50749;51.636;4.948;2023-07-13T05:10:18;101572.81;;;22.70;50.31
59190;BME280;50749;51.636;4.948;2023-07-13T05:12:44;101579.19;;;22.70;50.29
59190;BME280;50749;51.636;4.948;2023-07-13T05:15:10;101580.72;;;22.68;50.50
59190;BME280;50749;51.636;4.948;2023-07-13T05:17:36;101583.09;;;22.66;50.72
59190;BME280;50749;51.636;4.948;2023-07-13T05:20:01;101584.66;;;22.63;50.82
59190;BME280;50749;51.636;4.948;2023-07-13T05:22:28;101588.53;;;22.58;50.83
59190;BME280;50749;51.636;4.948;2023-07-13T05:24:53;101579.75;;;22.56;50.91
59190;BME280;50749;51.636;4.948;2023-07-13T05:27:19;101582.09;;;22.54;51.49
59190;BME280;50749;51.636;4.948;2023-07-13T05:29:45;101580.50;;;22.53;51.21
59190;BME280;50749;51.636;4.948;2023-07-13T05:32:11;101581.66;;;22.52;51.23
59190;BME280;50749;51.636;4.948;2023-07-13T05:34:36;101585.66;;;22.51;51.62
59190;BME280;50749;51.636;4.948;2023-07-13T05:37:02;101585.13;;;22.45;51.96
59190;BME280;50749;51.636;4.948;2023-07-13T05:39:28;101586.72;;;22.23;52.19
59190;BME280;50749;51.636;4.948;2023-07-13T05:41:54;101588.47;;;22.12;52.87
59190;BME280;50749;51.636;4.948;2023-07-13T05:44:20;101583.94;;;22.04;53.01
59190;BME280;50749;51.636;4.948;2023-07-13T05:46:46;101593.78;;;21.98;53.40
59190;BME280;50749;51.636;4.948;2023-07-13T05:49:11;101605.06;;;21.85;53.73
59190;BME280;50749;51.636;4.948;2023-07-13T05:51:37;101602.88;;;21.75;54.26
59190;BME280;50749;51.636;4.948;2023-07-13T05:54:03;101598.31;;;21.67;54.54
59190;BME280;50749;51.636;4.948;2023-07-13T05:56:29;101612.09;;;21.60;54.68
59190;BME280;50749;51.636;4.948;2023-07-13T05:58:56;101605.03;;;21.46;55.00
59190;BME280;50749;51.636;4.948;2023-07-13T06:01:22;101613.84;;;21.48;54.85
59190;BME280;50749;51.636;4.948;2023-07-13T06:03:49;101621.81;;;21.50;55.28
59190;BME280;50749;51.636;4.948;2023-07-13T06:06:16;101623.81;;;21.49;55.21
59190;BME280;50749;51.636;4.948;2023-07-13T06:08:42;101626.84;;;21.44;55.64
59190;BME280;50749;51.636;4.948;2023-07-13T06:11:17;101632.31;;;21.41;55.35
59190;BME280;50749;51.636;4.948;2023-07-13T06:13:43;101634.59;;;21.35;56.00
59190;BME280;50749;51.636;4.948;2023-07-13T06:16:09;101632.97;;;21.34;55.79
59190;BME280;50749;51.636;4.948;2023-07-13T06:18:36;101630.91;;;21.31;56.07
59190;BME280;50749;51.636;4.948;2023-07-13T06:21:14;101635.25;;;21.28;56.61
59190;BME280;50749;51.636;4.948;2023-07-13T06:23:40;101633.53;;;21.24;56.30
59190;BME280;50749;51.636;4.948;2023-07-13T06:26:06;101630.31;;;21.22;56.26
59190;BME280;50749;51.636;4.948;2023-07-13T06:28:33;101635.88;;;21.22;56.33
59190;BME280;50749;51.636;4.948;2023-07-13T06:31:00;101637.03;;;21.21;56.84
59190;BME280;50749;51.636;4.948;2023-07-13T06:33:26;101639.81;;;21.21;56.41
59190;BME280;50749;51.636;4.948;2023-07-13T06:35:52;101633.09;;;21.22;56.54
59190;BME280;50749;51.636;4.948;2023-07-13T06:38:20;101640.53;;;21.18;56.91
59190;BME280;50749;51.636;4.948;2023-07-13T06:40:46;101634.91;;;21.14;56.80
59190;BME280;50749;51.636;4.948;2023-07-13T06:43:12;101644.50;;;21.17;57.17
59190;BME280;50749;51.636;4.948;2023-07-13T06:45:45;101648.44;;;21.15;56.98
59190;BME280;50749;51.636;4.948;2023-07-13T06:48:13;101649.66;;;21.18;56.78
59190;BME280;50749;51.636;4.948;2023-07-13T06:50:40;101644.50;;;21.17;57.20
59190;BME280;50749;51.636;4.948;2023-07-13T06:53:06;101652.91;;;21.20;56.69
59190;BME280;50749;51.636;4.948;2023-07-13T06:55:32;101654.16;;;21.23;57.17
59190;BME280;50749;51.636;4.948;2023-07-13T06:57:58;101659.81;;;21.26;57.08
59190;BME280;50749;51.636;4.948;2023-07-13T07:00:24;101652.72;;;21.29;56.97
59190;BME280;50749;51.636;4.948;2023-07-13T07:02:49;101646.44;;;21.32;57.14
59190;BME280;50749;51.636;4.948;2023-07-13T07:05:15;101655.16;;;21.30;56.68
59190;BME280;50749;51.636;4.948;2023-07-13T07:07:41;101651.94;;;21.28;56.59
59190;BME280;50749;51.636;4.948;2023-07-13T07:10:07;101655.06;;;21.27;56.34
59190;BME280;50749;51.636;4.948;2023-07-13T07:12:33;101657.38;;;21.25;56.45
59190;BME280;50749;51.636;4.948;2023-07-13T07:14:59;101656.66;;;21.28;56.62
59190;BME280;50749;51.636;4.948;2023-07-13T07:17:25;101657.09;;;21.30;56.56
59190;BME280;50749;51.636;4.948;2023-07-13T07:19:52;101655.94;;;21.31;56.29
59190;BME280;50749;51.636;4.948;2023-07-13T07:22:20;101657.22;;;21.33;56.67
59190;BME280;50749;51.636;4.948;2023-07-13T07:24:46;101660.78;;;21.34;56.62
59190;BME280;50749;51.636;4.948;2023-07-13T07:27:12;101657.56;;;21.32;56.30
59190;BME280;50749;51.636;4.948;2023-07-13T07:29:38;101662.41;;;21.35;55.98
59190;BME280;50749;51.636;4.948;2023-07-13T07:32:04;101664.00;;;21.36;56.07
59190;BME280;50749;51.636;4.948;2023-07-13T07:34:30;101662.50;;;21.39;56.13
59190;BME280;50749;51.636;4.948;2023-07-13T07:36:59;101672.78;;;21.38;56.11
59190;BME280;50749;51.636;4.948;2023-07-13T07:39:27;101668.41;;;21.37;56.21
59190;BME280;50749;51.636;4.948;2023-07-13T07:41:53;101670.00;;;21.38;56.31
59190;BME280;50749;51.636;4.948;2023-07-13T07:44:19;101675.94;;;21.37;56.00
59190;BME280;50749;51.636;4.948;2023-07-13T07:46:45;101668.41;;;21.37;55.54
59190;BME280;50749;51.636;4.948;2023-07-13T07:49:11;101662.94;;;21.41;55.70
59190;BME280;50749;51.636;4.948;2023-07-13T07:51:37;101672.50;;;21.43;55.69
59190;BME280;50749;51.636;4.948;2023-07-13T07:54:04;101684.91;;;21.46;55.02
59190;BME280;50749;51.636;4.948;2023-07-13T07:56:30;101671.34;;;21.44;55.31
59190;BME280;50749;51.636;4.948;2023-07-13T07:58:56;101682.03;;;21.42;54.75
59190;BME280;50749;51.636;4.948;2023-07-13T08:01:22;101667.41;;;21.45;54.90
59190;BME280;50749;51.636;4.948;2023-07-13T08:03:48;101665.16;;;21.51;54.81
59190;BME280;50749;51.636;4.948;2023-07-13T08:06:14;101670.00;;;21.54;54.28
59190;BME280;50749;51.636;4.948;2023-07-13T08:08:40;101672.50;;;21.59;53.94
59190;BME280;50749;51.636;4.948;2023-07-13T08:11:09;101682.09;;;21.62;53.17
59190;BME280;50749;51.636;4.948;2023-07-13T08:13:36;101677.00;;;21.64;53.35
59190;BME280;50749;51.636;4.948;2023-07-13T08:16:05;101677.00;;;21.64;53.04
59190;BME280;50749;51.636;4.948;2023-07-13T08:18:32;101671.50;;;21.67;53.21
59190;BME280;50749;51.636;4.948;2023-07-13T08:20:57;101675.09;;;21.68;52.79
59190;BME280;50749;51.636;4.948;2023-07-13T08:23:25;101666.00;;;21.71;53.05
59190;BME280;50749;51.636;4.948;2023-07-13T08:25:54;101668.88;;;21.75;52.86
59190;BME280;50749;51.636;4.948;2023-07-13T08:28:21;101667.34;;;21.77;53.13
59190;BME280;50749;51.636;4.948;2023-07-13T08:30:47;101672.97;;;21.81;52.97
59190;BME280;50749;51.636;4.948;2023-07-13T08:33:20;101669.84;;;21.82;52.95
59190;BME280;50749;51.636;4.948;2023-07-13T08:35:47;101665.06;;;21.83;52.59
59190;BME280;50749;51.636;4.948;2023-07-13T08:38:13;101669.09;;;21.85;52.41
59190;BME280;50749;51.636;4.948;2023-07-13T08:40:40;101666.69;;;21.84;52.40
59190;BME280;50749;51.636;4.948;2023-07-13T08:43:22;101671.88;;;21.85;52.17
59190;BME280;50749;51.636;4.948;2023-07-13T08:45:54;101671.50;;;21.87;51.81
59190;BME280;50749;51.636;4.948;2023-07-13T08:48:27;101667.19;;;21.89;51.79
59190;BME280;50749;51.636;4.948;2023-07-13T08:51:04;101666.03;;;21.91;51.86
59190;BME280;50749;51.636;4.948;2023-07-13T08:53:48;101672.84;;;21.93;51.68
59190;BME280;50749;51.636;4.948;2023-07-13T08:56:21;101668.16;;;21.97;51.60
59190;BME280;50749;51.636;4.948;2023-07-13T08:58:51;101668.53;;;21.96;51.77
59190;BME280;50749;51.636;4.948;2023-07-13T09:01:28;101663.31;;;21.94;51.69
59190;BME280;50749;51.636;4.948;2023-07-13T09:07:05;101666.19;;;21.98;51.83
59190;BME280;50749;51.636;4.948;2023-07-13T09:12:25;101661.91;;;22.04;50.98
59190;BME280;50749;51.636;4.948;2023-07-13T09:14:55;101665.16;;;22.06;50.73
59190;BME280;50749;51.636;4.948;2023-07-13T09:17:32;101655.25;;;22.08;51.33
59190;BME280;50749;51.636;4.948;2023-07-13T09:20:21;101661.34;;;22.14;51.36
59190;BME280;50749;51.636;4.948;2023-07-13T09:22:49;101672.59;;;22.21;50.91
59190;BME280;50749;51.636;4.948;2023-07-13T09:25:32;101671.50;;;22.26;50.65
59190;BME280;50749;51.636;4.948;2023-07-13T09:28:02;101667.19;;;22.29;50.27
59190;BME280;50749;51.636;4.948;2023-07-13T09:30:49;101668.47;;;22.31;50.26
59190;BME280;50749;51.636;4.948;2023-07-13T09:33:16;101682.03;;;22.33;50.11
59190;BME280;50749;51.636;4.948;2023-07-13T09:35:42;101671.69;;;22.33;50.00
59190;BME280;50749;51.636;4.948;2023-07-13T09:38:15;101678.03;;;22.34;50.19
59190;BME280;50749;51.636;4.948;2023-07-13T09:43:38;101676.88;;;22.35;50.30
59190;BME280;50749;51.636;4.948;2023-07-13T09:46:07;101673.38;;;22.38;50.65
59190;BME280;50749;51.636;4.948;2023-07-13T09:48:45;101663.09;;;22.42;50.57
59190;BME280;50749;51.636;4.948;2023-07-13T09:51:14;101668.34;;;22.47;50.78
59190;BME280;50749;51.636;4.948;2023-07-13T09:53:43;101675.53;;;22.48;49.92
59190;BME280;50749;51.636;4.948;2023-07-13T09:56:24;101674.34;;;22.49;49.57
59190;BME280;50749;51.636;4.948;2023-07-13T09:58:50;101668.78;;;22.49;49.46
59190;BME280;50749;51.636;4.948;2023-07-13T10:01:31;101667.19;;;22.48;49.68
59190;BME280;50749;51.636;4.948;2023-07-13T10:03:58;101679.13;;;22.49;49.36
59190;BME280;50749;51.636;4.948;2023-07-13T10:06:24;101679.13;;;22.49;49.26
59190;BME280;50749;51.636;4.948;2023-07-13T10:08:52;101679.56;;;22.51;49.34
59190;BME280;50749;51.636;4.948;2023-07-13T10:11:19;101687.13;;;22.50;49.17
59190;BME280;50749;51.636;4.948;2023-07-13T10:13:52;101682.81;;;22.53;49.45
59190;BME280;50749;51.636;4.948;2023-07-13T10:16:19;101696.72;;;22.53;49.18
59190;BME280;50749;51.636;4.948;2023-07-13T10:18:50;101704.25;;;22.52;49.07
59190;BME280;50749;51.636;4.948;2023-07-13T10:21:19;101700.31;;;22.53;49.24
59190;BME280;50749;51.636;4.948;2023-07-13T10:23:52;101694.75;;;22.53;49.43
59190;BME280;50749;51.636;4.948;2023-07-13T10:26:23;101705.53;;;22.55;49.21
59190;BME280;50749;51.636;4.948;2023-07-13T10:28:54;101704.69;;;22.54;48.89
59190;BME280;50749;51.636;4.948;2023-07-13T10:31:22;101719.50;;;22.58;48.96
59190;BME280;50749;51.636;4.948;2023-07-13T10:33:49;101732.72;;;22.61;48.50
59190;BME280;50749;51.636;4.948;2023-07-13T10:36:29;101725.59;;;22.64;49.26
59190;BME280;50749;51.636;4.948;2023-07-13T10:38:59;101719.63;;;22.66;49.05
59190;BME280;50749;51.636;4.948;2023-07-13T10:41:28;101723.22;;;22.66;49.44
59190;BME280;50749;51.636;4.948;2023-07-13T10:43:56;101716.13;;;22.69;49.78
59190;BME280;50749;51.636;4.948;2023-07-13T10:46:25;101717.38;;;22.71;49.48
59190;BME280;50749;51.636;4.948;2023-07-13T10:48:56;101716.97;;;22.73;49.51
59190;BME280;50749;51.636;4.948;2023-07-13T10:51:24;101731.38;;;22.75;49.12
59190;BME280;50749;51.636;4.948;2023-07-13T10:56:45;101720.59;;;22.73;48.42
59190;BME280;50749;51.636;4.948;2023-07-13T10:59:16;101719.03;;;22.76;48.30
59190;BME280;50749;51.636;4.948;2023-07-13T11:01:55;101733.78;;;22.76;47.94
59190;BME280;50749;51.636;4.948;2023-07-13T11:04:22;101725.44;;;22.76;47.90
59190;BME280;50749;51.636;4.948;2023-07-13T11:06:56;101737.00;;;22.78;47.39
59190;BME280;50749;51.636;4.948;2023-07-13T11:09:36;101730.25;;;22.79;47.38
59190;BME280;50749;51.636;4.948;2023-07-13T11:12:26;101726.66;;;22.79;47.38
59190;BME280;50749;51.636;4.948;2023-07-13T11:19:51;101731.50;;;22.82;47.72
59190;BME280;50749;51.636;4.948;2023-07-13T11:22:25;101727.53;;;22.83;47.20
59190;BME280;50749;51.636;4.948;2023-07-13T11:25:28;101741.47;;;22.83;47.50
59190;BME280;50749;51.636;4.948;2023-07-13T11:33:27;101730.69;;;22.81;46.29
59190;BME280;50749;51.636;4.948;2023-07-13T11:35:59;101728.72;;;22.82;45.88
59190;BME280;50749;51.636;4.948;2023-07-13T11:38:34;101733.13;;;22.83;44.92
59190;BME280;50749;51.636;4.948;2023-07-13T11:41:14;101737.94;;;22.86;45.50
59190;BME280;50749;51.636;4.948;2023-07-13T11:43:41;101719.59;;;22.85;45.59
59190;BME280;50749;51.636;4.948;2023-07-13T11:46:24;101740.72;;;22.86;46.24
59190;BME280;50749;51.636;4.948;2023-07-13T11:48:52;101732.81;;;22.88;45.39
59190;BME280;50749;51.636;4.948;2023-07-13T11:51:28;101729.25;;;22.91;46.05
59190;BME280;50749;51.636;4.948;2023-07-13T11:53:56;101730.88;;;22.92;45.90
59190;BME280;50749;51.636;4.948;2023-07-13T11:56:23;101732.13;;;22.95;46.12
59190;BME280;50749;51.636;4.948;2023-07-13T11:58:53;101735.72;;;22.95;45.76
59190;BME280;50749;51.636;4.948;2023-07-13T12:01:25;101742.91;;;22.96;44.97
59190;BME280;50749;51.636;4.948;2023-07-13T12:03:53;101730.19;;;22.99;45.38
59190;BME280;50749;51.636;4.948;2023-07-13T12:06:25;101726.97;;;22.97;45.44
59190;BME280;50749;51.636;4.948;2023-07-13T12:08:56;101734.59;;;23.00;46.07
59190;BME280;50749;51.636;4.948;2023-07-13T12:11:23;101735.81;;;23.03;45.85
59190;BME280;50749;51.636;4.948;2023-07-13T12:13:49;101723.88;;;23.02;45.98
59190;BME280;50749;51.636;4.948;2023-07-13T12:16:21;101744.56;;;23.01;45.77
59190;BME280;50749;51.636;4.948;2023-07-13T12:18:52;101738.19;;;23.00;45.82
59190;BME280;50749;51.636;4.948;2023-07-13T12:21:19;101738.56;;;22.99;45.50
59190;BME280;50749;51.636;4.948;2023-07-13T12:23:49;101727.78;;;22.97;45.21
59190;BME280;50749;51.636;4.948;2023-07-13T12:26:15;101747.28;;;22.97;45.83
59190;BME280;50749;51.636;4.948;2023-07-13T12:28:52;101751.28;;;22.96;45.27
59190;BME280;50749;51.636;4.948;2023-07-13T12:36:31;101744.75;;;22.89;45.17
59190;BME280;50749;51.636;4.948;2023-07-13T12:39:02;101750.69;;;22.87;44.82
59190;BME280;50749;51.636;4.948;2023-07-13T12:41:30;101747.13;;;22.87;45.81
59190;BME280;50749;51.636;4.948;2023-07-13T12:43:55;101751.88;;;22.86;45.49
59190;BME280;50749;51.636;4.948;2023-07-13T12:46:24;101745.91;;;22.88;45.30
59190;BME280;50749;51.636;4.948;2023-07-13T12:48:54;101747.16;;;22.90;45.68
59190;BME280;50749;51.636;4.948;2023-07-13T12:51:24;101749.91;;;22.87;45.79
59190;BME280;50749;51.636;4.948;2023-07-13T12:53:56;101758.63;;;22.85;45.80
59190;BME280;50749;51.636;4.948;2023-07-13T12:56:25;101750.63;;;22.84;44.25
59190;BME280;50749;51.636;4.948;2023-07-13T12:59:00;101760.91;;;22.79;44.29
59190;BME280;50749;51.636;4.948;2023-07-13T13:01:29;101756.81;;;22.73;44.88
59190;BME280;50749;51.636;4.948;2023-07-13T13:03:55;101767.16;;;22.73;45.26
59190;BME280;50749;51.636;4.948;2023-07-13T13:06:26;101772.28;;;22.71;46.06
59190;BME280;50749;51.636;4.948;2023-07-13T13:08:55;101770.59;;;22.66;46.63
59190;BME280;50749;51.636;4.948;2023-07-13T13:11:23;101771.38;;;22.63;46.85
59190;BME280;50749;51.636;4.948;2023-07-13T13:13:50;101774.94;;;22.63;46.88
59190;BME280;50749;51.636;4.948;2023-07-13T13:18:53;101778.16;;;22.66;47.31
59190;BME280;50749;51.636;4.948;2023-07-13T13:21:20;101774.22;;;22.67;47.24
59190;BME280;50749;51.636;4.948;2023-07-13T13:23:47;101783.00;;;22.69;47.99
59190;BME280;50749;51.636;4.948;2023-07-13T13:26:14;101780.66;;;22.71;47.82
59190;BME280;50749;51.636;4.948;2023-07-13T13:28:43;101783.88;;;22.73;47.40